sensor_id;sensor_type;location;lat;lon;timestamp;P1;durP1;ratioP1;P2;durP2;ratioP2
42006;SDS011;27696;42.704;23.304;2024-02-26T00:02:05;49.72;;;32.38;;
42006;SDS011;27696;42.704;23.304;2024-02-26T00:04:32;41.20;;;31.58;;
42006;SDS011;27696;42.704;23.304;2024-02-26T00:06:57;43.05;;;28.52;;
42006;SDS011;27696;42.704;23.304;2024-02-26T00:09:23;44.05;;;31.17;;
42006;SDS011;27696;42.704;23.304;2024-02-26T00:11:49;41.70;;;28.75;;
42006;SDS011;27696;42.704;23.304;2024-02-26T00:14:14;36.78;;;28.40;;
42006;SDS011;27696;42.704;23.304;2024-02-26T00:16:40;36.38;;;29.02;;
42006;SDS011;27696;42.704;23.304;2024-02-26T00:19:06;41.92;;;29.42;;
42006;SDS011;27696;42.704;23.304;2024-02-26T00:21:32;40.03;;;29.63;;
42006;SDS011;27696;42.704;23.304;2024-02-26T00:23:57;38.85;;;30.05;;
42006;SDS011;27696;42.704;23.304;2024-02-26T00:26:23;41.30;;;29.65;;
42006;SDS011;27696;42.704;23.304;2024-02-26T00:28:48;39.10;;;30.15;;
42006;SDS011;27696;42.704;23.304;2024-02-26T00:31:14;41.15;;;29.35;;
42006;SDS011;27696;42.704;23.304;2024-02-26T00:33:39;40.63;;;30.52;;
42006;SDS011;27696;42.704;23.304;2024-02-26T00:36:05;45.63;;;31.58;;
42006;SDS011;27696;42.704;23.304;2024-02-26T00:38:31;44.55;;;31.00;;
42006;SDS011;27696;42.704;23.304;2024-02-26T00:40:56;43.67;;;31.85;;
42006;SDS011;27696;42.704;23.304;2024-02-26T00:43:22;44.58;;;31.23;;
42006;SDS011;27696;42.704;23.304;2024-02-26T00:45:47;50.08;;;32.05;;
42006;SDS011;27696;42.704;23.304;2024-02-26T00:48:13;49.28;;;32.70;;
42006;SDS011;27696;42.704;23.304;2024-02-26T00:50:39;49.75;;;32.50;;
42006;SDS011;27696;42.704;23.304;2024-02-26T00:53:04;41.85;;;31.35;;
42006;SDS011;27696;42.704;23.304;2024-02-26T00:55:30;40.28;;;28.73;;
42006;SDS011;27696;42.704;23.304;2024-02-26T00:57:56;39.13;;;29.10;;
42006;SDS011;27696;42.704;23.304;2024-02-26T01:00:21;35.83;;;26.95;;
42006;SDS011;27696;42.704;23.304;2024-02-26T01:02:47;41.40;;;30.35;;
42006;SDS011;27696;42.704;23.304;2024-02-26T01:05:13;45.45;;;29.83;;
42006;SDS011;27696;42.704;23.304;2024-02-26T01:07:41;43.35;;;30.13;;
42006;SDS011;27696;42.704;23.304;2024-02-26T01:10:07;44.58;;;29.65;;
42006;SDS011;27696;42.704;23.304;2024-02-26T01:12:33;49.22;;;34.08;;
42006;SDS011;27696;42.704;23.304;2024-02-26T01:14:59;44.40;;;31.85;;
42006;SDS011;27696;42.704;23.304;2024-02-26T01:17:25;42.40;;;31.58;;
42006;SDS011;27696;42.704;23.304;2024-02-26T01:19:50;43.58;;;32.38;;
42006;SDS011;27696;42.704;23.304;2024-02-26T01:22:16;48.25;;;32.28;;
42006;SDS011;27696;42.704;23.304;2024-02-26T01:24:41;41.05;;;31.33;;
42006;SDS011;27696;42.704;23.304;2024-02-26T01:27:07;40.20;;;28.92;;
42006;SDS011;27696;42.704;23.304;2024-02-26T01:29:34;43.15;;;30.55;;
42006;SDS011;27696;42.704;23.304;2024-02-26T01:31:59;40.83;;;29.58;;
42006;SDS011;27696;42.704;23.304;2024-02-26T01:34:25;44.38;;;28.55;;
42006;SDS011;27696;42.704;23.304;2024-02-26T01:36:50;36.38;;;27.98;;
42006;SDS011;27696;42.704;23.304;2024-02-26T01:39:16;38.70;;;28.35;;
42006;SDS011;27696;42.704;23.304;2024-02-26T01:41:41;36.30;;;26.83;;
42006;SDS011;27696;42.704;23.304;2024-02-26T01:44:07;32.97;;;26.45;;
42006;SDS011;27696;42.704;23.304;2024-02-26T01:46:33;37.40;;;27.23;;
42006;SDS011;27696;42.704;23.304;2024-02-26T01:48:59;37.78;;;27.02;;
42006;SDS011;27696;42.704;23.304;2024-02-26T01:51:25;33.13;;;26.13;;
42006;SDS011;27696;42.704;23.304;2024-02-26T01:53:51;35.28;;;26.30;;
42006;SDS011;27696;42.704;23.304;2024-02-26T01:56:17;34.58;;;27.58;;
42006;SDS011;27696;42.704;23.304;2024-02-26T01:58:43;32.88;;;26.25;;
42006;SDS011;27696;42.704;23.304;2024-02-26T02:01:09;32.28;;;25.42;;
42006;SDS011;27696;42.704;23.304;2024-02-26T02:03:36;33.20;;;25.80;;
42006;SDS011;27696;42.704;23.304;2024-02-26T02:06:02;37.83;;;27.27;;
42006;SDS011;27696;42.704;23.304;2024-02-26T02:08:28;34.47;;;26.85;;
42006;SDS011;27696;42.704;23.304;2024-02-26T02:10:53;33.88;;;26.17;;
42006;SDS011;27696;42.704;23.304;2024-02-26T02:13:19;32.28;;;27.10;;
42006;SDS011;27696;42.704;23.304;2024-02-26T02:15:44;38.00;;;27.02;;
42006;SDS011;27696;42.704;23.304;2024-02-26T02:18:10;31.05;;;25.67;;
42006;SDS011;27696;42.704;23.304;2024-02-26T02:20:35;31.88;;;25.50;;
42006;SDS011;27696;42.704;23.304;2024-02-26T02:23:01;34.97;;;26.08;;
42006;SDS011;27696;42.704;23.304;2024-02-26T02:25:27;34.20;;;26.73;;
42006;SDS011;27696;42.704;23.304;2024-02-26T02:27:53;39.00;;;25.70;;
42006;SDS011;27696;42.704;23.304;2024-02-26T02:30:20;34.80;;;26.05;;
42006;SDS011;27696;42.704;23.304;2024-02-26T02:32:47;37.47;;;26.58;;
42006;SDS011;27696;42.704;23.304;2024-02-26T02:35:12;35.20;;;25.92;;
42006;SDS011;27696;42.704;23.304;2024-02-26T02:37:38;32.00;;;25.75;;
42006;SDS011;27696;42.704;23.304;2024-02-26T02:40:03;33.50;;;25.88;;
42006;SDS011;27696;42.704;23.304;2024-02-26T02:42:30;35.13;;;26.25;;
42006;SDS011;27696;42.704;23.304;2024-02-26T02:44:56;35.25;;;27.00;;
42006;SDS011;27696;42.704;23.304;2024-02-26T02:47:21;35.55;;;26.67;;
42006;SDS011;27696;42.704;23.304;2024-02-26T02:49:47;34.40;;;26.02;;
42006;SDS011;27696;42.704;23.304;2024-02-26T02:52:12;33.30;;;26.13;;
42006;SDS011;27696;42.704;23.304;2024-02-26T02:54:38;38.17;;;28.92;;
42006;SDS011;27696;42.704;23.304;2024-02-26T02:57:06;40.08;;;29.25;;
42006;SDS011;27696;42.704;23.304;2024-02-26T02:59:32;36.70;;;27.83;;
42006;SDS011;27696;42.704;23.304;2024-02-26T03:01:57;36.80;;;27.95;;
42006;SDS011;27696;42.704;23.304;2024-02-26T03:04:23;35.72;;;27.38;;
42006;SDS011;27696;42.704;23.304;2024-02-26T03:06:48;32.72;;;26.55;;
42006;SDS011;27696;42.704;23.304;2024-02-26T03:09:14;36.40;;;27.88;;
42006;SDS011;27696;42.704;23.304;2024-02-26T03:11:39;32.92;;;26.63;;
42006;SDS011;27696;42.704;23.304;2024-02-26T03:14:05;33.00;;;27.13;;
42006;SDS011;27696;42.704;23.304;2024-02-26T03:16:31;36.20;;;26.10;;
42006;SDS011;27696;42.704;23.304;2024-02-26T03:18:57;33.13;;;25.30;;
42006;SDS011;27696;42.704;23.304;2024-02-26T03:21:22;31.13;;;24.15;;
42006;SDS011;27696;42.704;23.304;2024-02-26T03:23:48;30.50;;;24.15;;
42006;SDS011;27696;42.704;23.304;2024-02-26T03:26:13;34.88;;;25.50;;
42006;SDS011;27696;42.704;23.304;2024-02-26T03:28:39;32.90;;;24.90;;
42006;SDS011;27696;42.704;23.304;2024-02-26T03:31:05;33.33;;;25.75;;
42006;SDS011;27696;42.704;23.304;2024-02-26T03:33:31;35.88;;;26.80;;
42006;SDS011;27696;42.704;23.304;2024-02-26T03:35:56;30.45;;;25.67;;
42006;SDS011;27696;42.704;23.304;2024-02-26T03:38:22;33.63;;;26.38;;
42006;SDS011;27696;42.704;23.304;2024-02-26T03:40:47;31.38;;;24.67;;
42006;SDS011;27696;42.704;23.304;2024-02-26T03:43:13;36.55;;;25.90;;
42006;SDS011;27696;42.704;23.304;2024-02-26T03:45:38;32.05;;;26.60;;
42006;SDS011;27696;42.704;23.304;2024-02-26T03:48:04;39.78;;;25.20;;
42006;SDS011;27696;42.704;23.304;2024-02-26T03:50:30;41.33;;;26.00;;
42006;SDS011;27696;42.704;23.304;2024-02-26T03:52:55;31.25;;;25.13;;
42006;SDS011;27696;42.704;23.304;2024-02-26T03:55:22;30.58;;;25.55;;
42006;SDS011;27696;42.704;23.304;2024-02-26T03:57:50;32.90;;;25.10;;
42006;SDS011;27696;42.704;23.304;2024-02-26T04:00:16;32.72;;;25.13;;
42006;SDS011;27696;42.704;23.304;2024-02-26T04:02:42;36.53;;;25.40;;
42006;SDS011;27696;42.704;23.304;2024-02-26T04:05:10;31.75;;;24.67;;
42006;SDS011;27696;42.704;23.304;2024-02-26T04:07:36;33.85;;;24.42;;
42006;SDS011;27696;42.704;23.304;2024-02-26T04:10:02;32.42;;;25.35;;
42006;SDS011;27696;42.704;23.304;2024-02-26T04:12:30;34.45;;;25.35;;
42006;SDS011;27696;42.704;23.304;2024-02-26T04:14:55;33.60;;;25.33;;
42006;SDS011;27696;42.704;23.304;2024-02-26T04:17:21;34.05;;;25.33;;
42006;SDS011;27696;42.704;23.304;2024-02-26T04:19:46;32.13;;;24.25;;
42006;SDS011;27696;42.704;23.304;2024-02-26T04:22:12;35.53;;;25.90;;
42006;SDS011;27696;42.704;23.304;2024-02-26T04:24:37;33.53;;;24.63;;
42006;SDS011;27696;42.704;23.304;2024-02-26T04:27:03;35.67;;;25.75;;
42006;SDS011;27696;42.704;23.304;2024-02-26T04:29:28;34.67;;;26.92;;
42006;SDS011;27696;42.704;23.304;2024-02-26T04:31:54;37.95;;;26.88;;
42006;SDS011;27696;42.704;23.304;2024-02-26T04:34:19;37.75;;;26.05;;
42006;SDS011;27696;42.704;23.304;2024-02-26T04:36:45;37.33;;;26.83;;
42006;SDS011;27696;42.704;23.304;2024-02-26T04:39:13;37.92;;;28.98;;
42006;SDS011;27696;42.704;23.304;2024-02-26T04:41:38;35.45;;;27.70;;
42006;SDS011;27696;42.704;23.304;2024-02-26T04:44:04;41.53;;;28.25;;
42006;SDS011;27696;42.704;23.304;2024-02-26T04:46:30;38.65;;;28.98;;
42006;SDS011;27696;42.704;23.304;2024-02-26T04:48:55;41.75;;;27.98;;
42006;SDS011;27696;42.704;23.304;2024-02-26T04:51:20;41.25;;;28.38;;
42006;SDS011;27696;42.704;23.304;2024-02-26T04:53:46;38.55;;;27.45;;
42006;SDS011;27696;42.704;23.304;2024-02-26T04:56:11;44.88;;;30.40;;
42006;SDS011;27696;42.704;23.304;2024-02-26T04:58:37;42.55;;;28.73;;
42006;SDS011;27696;42.704;23.304;2024-02-26T05:01:03;41.28;;;29.33;;
42006;SDS011;27696;42.704;23.304;2024-02-26T05:03:29;38.92;;;28.67;;
42006;SDS011;27696;42.704;23.304;2024-02-26T05:05:54;41.58;;;30.50;;
42006;SDS011;27696;42.704;23.304;2024-02-26T05:08:22;41.38;;;29.90;;
42006;SDS011;27696;42.704;23.304;2024-02-26T05:10:47;38.58;;;30.02;;
42006;SDS011;27696;42.704;23.304;2024-02-26T05:13:13;39.90;;;29.25;;
42006;SDS011;27696;42.704;23.304;2024-02-26T05:15:40;43.30;;;27.77;;
42006;SDS011;27696;42.704;23.304;2024-02-26T05:18:07;42.67;;;28.33;;
42006;SDS011;27696;42.704;23.304;2024-02-26T05:20:33;38.72;;;27.83;;
42006;SDS011;27696;42.704;23.304;2024-02-26T05:23:00;41.10;;;27.30;;
42006;SDS011;27696;42.704;23.304;2024-02-26T05:25:25;40.30;;;26.83;;
42006;SDS011;27696;42.704;23.304;2024-02-26T05:27:51;33.85;;;26.33;;
42006;SDS011;27696;42.704;23.304;2024-02-26T05:30:16;44.38;;;28.38;;
42006;SDS011;27696;42.704;23.304;2024-02-26T05:32:42;43.97;;;27.75;;
42006;SDS011;27696;42.704;23.304;2024-02-26T05:35:07;42.83;;;28.85;;
42006;SDS011;27696;42.704;23.304;2024-02-26T05:37:33;41.30;;;28.67;;
42006;SDS011;27696;42.704;23.304;2024-02-26T05:39:59;41.67;;;28.17;;
42006;SDS011;27696;42.704;23.304;2024-02-26T05:42:24;39.15;;;29.02;;
42006;SDS011;27696;42.704;23.304;2024-02-26T05:44:50;43.33;;;29.08;;
42006;SDS011;27696;42.704;23.304;2024-02-26T05:47:15;39.22;;;30.42;;
42006;SDS011;27696;42.704;23.304;2024-02-26T05:49:42;37.05;;;28.40;;
42006;SDS011;27696;42.704;23.304;2024-02-26T05:52:07;41.65;;;28.15;;
42006;SDS011;27696;42.704;23.304;2024-02-26T05:54:33;38.60;;;27.92;;
42006;SDS011;27696;42.704;23.304;2024-02-26T05:56:59;37.70;;;27.95;;
42006;SDS011;27696;42.704;23.304;2024-02-26T05:59:24;35.28;;;26.38;;
42006;SDS011;27696;42.704;23.304;2024-02-26T06:01:49;35.30;;;27.45;;
42006;SDS011;27696;42.704;23.304;2024-02-26T06:04:15;35.63;;;26.83;;
42006;SDS011;27696;42.704;23.304;2024-02-26T06:06:43;33.35;;;26.27;;
42006;SDS011;27696;42.704;23.304;2024-02-26T06:09:10;36.58;;;27.48;;
42006;SDS011;27696;42.704;23.304;2024-02-26T06:11:36;39.10;;;27.80;;
42006;SDS011;27696;42.704;23.304;2024-02-26T06:14:02;37.80;;;27.88;;
42006;SDS011;27696;42.704;23.304;2024-02-26T06:16:27;35.55;;;26.83;;
42006;SDS011;27696;42.704;23.304;2024-02-26T06:18:53;39.65;;;27.13;;
42006;SDS011;27696;42.704;23.304;2024-02-26T06:21:18;42.60;;;28.85;;
42006;SDS011;27696;42.704;23.304;2024-02-26T06:23:44;38.85;;;28.10;;
42006;SDS011;27696;42.704;23.304;2024-02-26T06:26:09;41.03;;;29.25;;
42006;SDS011;27696;42.704;23.304;2024-02-26T06:28:35;39.75;;;26.77;;
42006;SDS011;27696;42.704;23.304;2024-02-26T06:31:01;36.03;;;27.45;;
42006;SDS011;27696;42.704;23.304;2024-02-26T06:33:27;39.33;;;28.33;;
42006;SDS011;27696;42.704;23.304;2024-02-26T06:35:52;40.78;;;27.10;;
42006;SDS011;27696;42.704;23.304;2024-02-26T06:38:18;43.33;;;29.20;;
42006;SDS011;27696;42.704;23.304;2024-02-26T06:40:46;45.15;;;28.73;;
42006;SDS011;27696;42.704;23.304;2024-02-26T06:43:11;43.45;;;30.13;;
42006;SDS011;27696;42.704;23.304;2024-02-26T06:45:37;43.15;;;30.05;;
42006;SDS011;27696;42.704;23.304;2024-02-26T06:48:02;50.00;;;30.45;;
42006;SDS011;27696;42.704;23.304;2024-02-26T06:50:28;46.92;;;29.35;;
42006;SDS011;27696;42.704;23.304;2024-02-26T06:52:53;37.03;;;28.88;;
42006;SDS011;27696;42.704;23.304;2024-02-26T06:55:19;45.97;;;27.77;;
42006;SDS011;27696;42.704;23.304;2024-02-26T06:57:44;42.85;;;27.83;;
42006;SDS011;27696;42.704;23.304;2024-02-26T07:00:10;40.67;;;26.55;;
42006;SDS011;27696;42.704;23.304;2024-02-26T07:02:39;33.58;;;24.70;;
42006;SDS011;27696;42.704;23.304;2024-02-26T07:05:05;40.95;;;25.83;;
42006;SDS011;27696;42.704;23.304;2024-02-26T07:07:31;31.83;;;24.08;;
42006;SDS011;27696;42.704;23.304;2024-02-26T07:09:57;31.85;;;23.40;;
42006;SDS011;27696;42.704;23.304;2024-02-26T07:12:22;30.48;;;22.35;;
42006;SDS011;27696;42.704;23.304;2024-02-26T07:14:49;34.05;;;23.48;;
42006;SDS011;27696;42.704;23.304;2024-02-26T07:17:15;32.30;;;24.77;;
42006;SDS011;27696;42.704;23.304;2024-02-26T07:19:41;40.05;;;27.20;;
42006;SDS011;27696;42.704;23.304;2024-02-26T07:22:07;42.75;;;29.42;;
42006;SDS011;27696;42.704;23.304;2024-02-26T07:24:32;41.63;;;29.92;;
42006;SDS011;27696;42.704;23.304;2024-02-26T07:26:58;47.28;;;34.30;;
42006;SDS011;27696;42.704;23.304;2024-02-26T07:29:23;45.83;;;34.47;;
42006;SDS011;27696;42.704;23.304;2024-02-26T07:31:49;49.97;;;38.70;;
42006;SDS011;27696;42.704;23.304;2024-02-26T07:34:14;56.20;;;41.70;;
42006;SDS011;27696;42.704;23.304;2024-02-26T07:36:40;56.72;;;44.83;;
42006;SDS011;27696;42.704;23.304;2024-02-26T07:39:05;54.90;;;41.80;;
42006;SDS011;27696;42.704;23.304;2024-02-26T07:41:31;54.42;;;41.97;;
42006;SDS011;27696;42.704;23.304;2024-02-26T07:43:56;55.47;;;42.63;;
42006;SDS011;27696;42.704;23.304;2024-02-26T07:46:22;55.05;;;40.60;;
42006;SDS011;27696;42.704;23.304;2024-02-26T07:48:47;51.40;;;38.90;;
42006;SDS011;27696;42.704;23.304;2024-02-26T07:51:13;47.92;;;38.90;;
42006;SDS011;27696;42.704;23.304;2024-02-26T07:53:42;58.88;;;38.03;;
42006;SDS011;27696;42.704;23.304;2024-02-26T07:56:08;53.00;;;35.20;;
42006;SDS011;27696;42.704;23.304;2024-02-26T07:58:34;47.85;;;35.58;;
42006;SDS011;27696;42.704;23.304;2024-02-26T08:01:00;49.78;;;35.72;;
42006;SDS011;27696;42.704;23.304;2024-02-26T08:03:25;40.92;;;34.28;;
42006;SDS011;27696;42.704;23.304;2024-02-26T08:05:51;46.25;;;35.50;;
42006;SDS011;27696;42.704;23.304;2024-02-26T08:08:16;57.88;;;34.25;;
42006;SDS011;27696;42.704;23.304;2024-02-26T08:10:42;47.15;;;33.60;;
42006;SDS011;27696;42.704;23.304;2024-02-26T08:13:08;46.30;;;33.15;;
42006;SDS011;27696;42.704;23.304;2024-02-26T08:15:34;39.67;;;31.77;;
42006;SDS011;27696;42.704;23.304;2024-02-26T08:18:01;47.42;;;33.30;;
42006;SDS011;27696;42.704;23.304;2024-02-26T08:20:30;42.15;;;32.25;;
42006;SDS011;27696;42.704;23.304;2024-02-26T08:22:56;53.83;;;34.83;;
42006;SDS011;27696;42.704;23.304;2024-02-26T08:25:21;46.65;;;32.55;;
42006;SDS011;27696;42.704;23.304;2024-02-26T08:27:47;44.05;;;31.05;;
42006;SDS011;27696;42.704;23.304;2024-02-26T08:30:13;48.47;;;32.28;;
42006;SDS011;27696;42.704;23.304;2024-02-26T08:32:42;43.10;;;31.52;;
42006;SDS011;27696;42.704;23.304;2024-02-26T08:35:08;39.38;;;30.77;;
42006;SDS011;27696;42.704;23.304;2024-02-26T08:37:33;45.33;;;30.02;;
42006;SDS011;27696;42.704;23.304;2024-02-26T08:39:59;41.75;;;29.73;;
42006;SDS011;27696;42.704;23.304;2024-02-26T08:42:24;40.90;;;28.17;;
42006;SDS011;27696;42.704;23.304;2024-02-26T08:44:50;41.53;;;29.48;;
42006;SDS011;27696;42.704;23.304;2024-02-26T08:47:15;47.10;;;29.23;;
42006;SDS011;27696;42.704;23.304;2024-02-26T08:49:44;47.83;;;29.58;;
42006;SDS011;27696;42.704;23.304;2024-02-26T08:52:10;42.47;;;28.73;;
42006;SDS011;27696;42.704;23.304;2024-02-26T08:54:36;40.85;;;27.38;;
42006;SDS011;27696;42.704;23.304;2024-02-26T08:57:01;35.30;;;22.17;;
42006;SDS011;27696;42.704;23.304;2024-02-26T08:59:27;30.92;;;22.30;;
42006;SDS011;27696;42.704;23.304;2024-02-26T09:01:53;30.85;;;21.15;;
42006;SDS011;27696;42.704;23.304;2024-02-26T09:04:18;31.63;;;19.73;;
42006;SDS011;27696;42.704;23.304;2024-02-26T09:06:44;27.80;;;20.00;;
42006;SDS011;27696;42.704;23.304;2024-02-26T09:09:09;26.90;;;19.17;;
42006;SDS011;27696;42.704;23.304;2024-02-26T09:11:36;31.45;;;21.42;;
42006;SDS011;27696;42.704;23.304;2024-02-26T09:14:01;31.13;;;22.02;;
42006;SDS011;27696;42.704;23.304;2024-02-26T09:16:28;41.05;;;23.30;;
42006;SDS011;27696;42.704;23.304;2024-02-26T09:18:54;31.70;;;22.50;;
42006;SDS011;27696;42.704;23.304;2024-02-26T09:21:20;33.42;;;22.40;;
42006;SDS011;27696;42.704;23.304;2024-02-26T09:23:49;31.27;;;23.92;;
42006;SDS011;27696;42.704;23.304;2024-02-26T09:26:15;36.70;;;24.13;;
42006;SDS011;27696;42.704;23.304;2024-02-26T09:28:40;29.40;;;23.35;;
42006;SDS011;27696;42.704;23.304;2024-02-26T09:31:06;32.90;;;22.38;;
42006;SDS011;27696;42.704;23.304;2024-02-26T09:33:32;30.50;;;21.30;;
42006;SDS011;27696;42.704;23.304;2024-02-26T09:35:57;33.08;;;19.27;;
42006;SDS011;27696;42.704;23.304;2024-02-26T09:38:23;24.92;;;18.63;;
42006;SDS011;27696;42.704;23.304;2024-02-26T09:40:49;26.33;;;17.63;;
42006;SDS011;27696;42.704;23.304;2024-02-26T09:43:15;21.60;;;15.13;;
42006;SDS011;27696;42.704;23.304;2024-02-26T09:45:42;18.67;;;13.20;;
42006;SDS011;27696;42.704;23.304;2024-02-26T09:48:08;18.42;;;10.65;;
42006;SDS011;27696;42.704;23.304;2024-02-26T09:50:36;15.98;;;10.40;;
42006;SDS011;27696;42.704;23.304;2024-02-26T09:53:02;15.27;;;10.00;;
42006;SDS011;27696;42.704;23.304;2024-02-26T09:55:30;11.95;;;9.52;;
42006;SDS011;27696;42.704;23.304;2024-02-26T09:57:56;16.40;;;9.95;;
42006;SDS011;27696;42.704;23.304;2024-02-26T10:00:22;17.40;;;10.23;;
42006;SDS011;27696;42.704;23.304;2024-02-26T10:02:48;13.60;;;8.80;;
42006;SDS011;27696;42.704;23.304;2024-02-26T10:05:17;11.82;;;8.60;;
42006;SDS011;27696;42.704;23.304;2024-02-26T10:07:46;12.10;;;9.95;;
42006;SDS011;27696;42.704;23.304;2024-02-26T10:10:12;14.30;;;7.60;;
42006;SDS011;27696;42.704;23.304;2024-02-26T10:12:41;14.57;;;8.23;;
42006;SDS011;27696;42.704;23.304;2024-02-26T10:15:06;10.95;;;7.65;;
42006;SDS011;27696;42.704;23.304;2024-02-26T10:17:33;10.82;;;7.90;;
42006;SDS011;27696;42.704;23.304;2024-02-26T10:20:17;11.48;;;7.15;;
42006;SDS011;27696;42.704;23.304;2024-02-26T10:22:46;10.85;;;7.07;;
42006;SDS011;27696;42.704;23.304;2024-02-26T10:25:12;10.50;;;7.18;;
42006;SDS011;27696;42.704;23.304;2024-02-26T10:27:37;9.25;;;7.13;;
42006;SDS011;27696;42.704;23.304;2024-02-26T10:30:04;9.30;;;6.85;;
42006;SDS011;27696;42.704;23.304;2024-02-26T10:32:42;15.02;;;7.47;;
42006;SDS011;27696;42.704;23.304;2024-02-26T10:35:08;9.30;;;7.18;;
42006;SDS011;27696;42.704;23.304;2024-02-26T10:37:34;9.52;;;6.82;;
42006;SDS011;27696;42.704;23.304;2024-02-26T10:39:59;12.23;;;7.43;;
42006;SDS011;27696;42.704;23.304;2024-02-26T10:42:25;8.55;;;6.85;;
42006;SDS011;27696;42.704;23.304;2024-02-26T10:44:51;12.60;;;7.10;;
42006;SDS011;27696;42.704;23.304;2024-02-26T10:47:16;10.50;;;7.38;;
42006;SDS011;27696;42.704;23.304;2024-02-26T10:49:48;9.20;;;6.70;;
42006;SDS011;27696;42.704;23.304;2024-02-26T10:52:13;11.40;;;7.22;;
42006;SDS011;27696;42.704;23.304;2024-02-26T10:54:41;6.80;;;6.10;;
42006;SDS011;27696;42.704;23.304;2024-02-26T10:57:06;12.65;;;6.85;;
42006;SDS011;27696;42.704;23.304;2024-02-26T10:59:33;10.32;;;7.47;;
42006;SDS011;27696;42.704;23.304;2024-02-26T11:02:00;13.57;;;6.97;;
42006;SDS011;27696;42.704;23.304;2024-02-26T11:04:26;10.30;;;7.15;;
42006;SDS011;27696;42.704;23.304;2024-02-26T11:06:54;10.30;;;7.20;;
42006;SDS011;27696;42.704;23.304;2024-02-26T11:09:20;12.65;;;7.50;;
42006;SDS011;27696;42.704;23.304;2024-02-26T11:11:47;12.35;;;7.05;;
42006;SDS011;27696;42.704;23.304;2024-02-26T11:14:14;8.43;;;6.72;;
42006;SDS011;27696;42.704;23.304;2024-02-26T11:16:39;11.05;;;6.63;;
42006;SDS011;27696;42.704;23.304;2024-02-26T11:19:08;9.60;;;6.95;;
42006;SDS011;27696;42.704;23.304;2024-02-26T11:21:35;13.65;;;6.65;;
42006;SDS011;27696;42.704;23.304;2024-02-26T11:24:07;8.68;;;6.03;;
42006;SDS011;27696;42.704;23.304;2024-02-26T11:26:38;11.75;;;6.97;;
42006;SDS011;27696;42.704;23.304;2024-02-26T11:29:08;11.05;;;6.82;;
42006;SDS011;27696;42.704;23.304;2024-02-26T11:31:35;7.47;;;5.68;;
42006;SDS011;27696;42.704;23.304;2024-02-26T11:34:02;12.20;;;6.43;;
42006;SDS011;27696;42.704;23.304;2024-02-26T11:36:28;9.20;;;6.90;;
42006;SDS011;27696;42.704;23.304;2024-02-26T11:38:55;11.75;;;7.30;;
42006;SDS011;27696;42.704;23.304;2024-02-26T11:41:20;11.50;;;6.80;;
42006;SDS011;27696;42.704;23.304;2024-02-26T11:46:31;10.32;;;6.30;;
42006;SDS011;27696;42.704;23.304;2024-02-26T11:49:29;7.75;;;6.28;;
42006;SDS011;27696;42.704;23.304;2024-02-26T11:51:52;8.18;;;6.20;;
42006;SDS011;27696;42.704;23.304;2024-02-26T11:57:24;10.43;;;6.57;;
42006;SDS011;27696;42.704;23.304;2024-02-26T11:59:54;10.10;;;6.10;;
42006;SDS011;27696;42.704;23.304;2024-02-26T12:02:51;10.52;;;5.68;;
42006;SDS011;27696;42.704;23.304;2024-02-26T12:05:26;12.00;;;6.45;;
42006;SDS011;27696;42.704;23.304;2024-02-26T12:13:10;8.32;;;5.65;;
42006;SDS011;27696;42.704;23.304;2024-02-26T12:15:41;7.80;;;6.25;;
42006;SDS011;27696;42.704;23.304;2024-02-26T12:18:12;10.70;;;6.03;;
42006;SDS011;27696;42.704;23.304;2024-02-26T12:20:41;6.53;;;5.50;;
42006;SDS011;27696;42.704;23.304;2024-02-26T12:23:06;12.68;;;6.10;;
42006;SDS011;27696;42.704;23.304;2024-02-26T12:25:32;8.95;;;6.35;;
42006;SDS011;27696;42.704;23.304;2024-02-26T12:27:58;8.07;;;6.28;;
42006;SDS011;27696;42.704;23.304;2024-02-26T12:30:24;10.60;;;5.93;;
42006;SDS011;27696;42.704;23.304;2024-02-26T12:32:51;9.13;;;5.18;;
42006;SDS011;27696;42.704;23.304;2024-02-26T12:35:17;7.97;;;5.28;;
42006;SDS011;27696;42.704;23.304;2024-02-26T12:37:43;13.30;;;5.53;;
42006;SDS011;27696;42.704;23.304;2024-02-26T12:40:09;11.95;;;5.38;;
42006;SDS011;27696;42.704;23.304;2024-02-26T12:42:35;17.08;;;5.35;;
42006;SDS011;27696;42.704;23.304;2024-02-26T12:45:11;5.68;;;4.68;;
42006;SDS011;27696;42.704;23.304;2024-02-26T12:47:41;9.35;;;5.43;;
42006;SDS011;27696;42.704;23.304;2024-02-26T12:50:08;8.98;;;5.20;;
42006;SDS011;27696;42.704;23.304;2024-02-26T12:52:42;9.25;;;5.13;;
42006;SDS011;27696;42.704;23.304;2024-02-26T12:55:09;6.47;;;5.10;;
42006;SDS011;27696;42.704;23.304;2024-02-26T12:57:38;12.65;;;5.32;;
42006;SDS011;27696;42.704;23.304;2024-02-26T13:00:04;13.88;;;5.00;;
42006;SDS011;27696;42.704;23.304;2024-02-26T13:02:31;8.48;;;5.28;;
42006;SDS011;27696;42.704;23.304;2024-02-26T13:04:58;7.88;;;4.80;;
42006;SDS011;27696;42.704;23.304;2024-02-26T13:07:26;7.05;;;5.28;;
42006;SDS011;27696;42.704;23.304;2024-02-26T13:09:52;6.53;;;4.55;;
42006;SDS011;27696;42.704;23.304;2024-02-26T13:12:17;8.93;;;5.45;;
42006;SDS011;27696;42.704;23.304;2024-02-26T13:14:43;10.35;;;5.40;;
42006;SDS011;27696;42.704;23.304;2024-02-26T13:17:08;8.18;;;4.93;;
42006;SDS011;27696;42.704;23.304;2024-02-26T13:19:34;10.25;;;6.95;;
42006;SDS011;27696;42.704;23.304;2024-02-26T13:22:03;6.47;;;4.82;;
42006;SDS011;27696;42.704;23.304;2024-02-26T13:24:32;6.88;;;5.20;;
42006;SDS011;27696;42.704;23.304;2024-02-26T13:26:58;7.45;;;4.70;;
42006;SDS011;27696;42.704;23.304;2024-02-26T13:29:24;10.23;;;5.10;;
42006;SDS011;27696;42.704;23.304;2024-02-26T13:31:58;9.23;;;5.32;;
42006;SDS011;27696;42.704;23.304;2024-02-26T13:34:27;9.15;;;4.95;;
42006;SDS011;27696;42.704;23.304;2024-02-26T13:36:53;11.38;;;5.18;;
42006;SDS011;27696;42.704;23.304;2024-02-26T13:41:49;10.38;;;6.10;;
42006;SDS011;27696;42.704;23.304;2024-02-26T13:44:15;13.38;;;6.15;;
42006;SDS011;27696;42.704;23.304;2024-02-26T13:46:40;6.35;;;4.90;;
42006;SDS011;27696;42.704;23.304;2024-02-26T13:49:07;9.40;;;5.07;;
42006;SDS011;27696;42.704;23.304;2024-02-26T13:51:33;7.90;;;5.80;;
42006;SDS011;27696;42.704;23.304;2024-02-26T13:54:00;11.60;;;6.30;;
42006;SDS011;27696;42.704;23.304;2024-02-26T13:56:26;9.57;;;6.38;;
42006;SDS011;27696;42.704;23.304;2024-02-26T13:58:51;7.25;;;5.25;;
42006;SDS011;27696;42.704;23.304;2024-02-26T14:01:17;12.45;;;5.60;;
42006;SDS011;27696;42.704;23.304;2024-02-26T14:03:42;8.48;;;5.55;;
42006;SDS011;27696;42.704;23.304;2024-02-26T14:06:08;8.13;;;5.18;;
42006;SDS011;27696;42.704;23.304;2024-02-26T14:08:33;7.38;;;5.05;;
42006;SDS011;27696;42.704;23.304;2024-02-26T14:10:59;8.20;;;4.93;;
42006;SDS011;27696;42.704;23.304;2024-02-26T14:13:25;12.32;;;4.63;;
42006;SDS011;27696;42.704;23.304;2024-02-26T14:15:51;7.85;;;4.20;;
42006;SDS011;27696;42.704;23.304;2024-02-26T14:18:16;8.85;;;4.65;;
42006;SDS011;27696;42.704;23.304;2024-02-26T14:20:42;7.15;;;4.63;;
42006;SDS011;27696;42.704;23.304;2024-02-26T14:23:07;10.57;;;5.30;;